Thursday, August 16, 2018, 9:57 AM EDT
Back to Local

KSNC, Chester, Chester Airport

Location: Chester, CT, United States Lat: 41.384
Local Time: 9:57 AM EDT (13:57 GMT) Lon: -72.506
Time Zone: US/Eastern Elev: 416 ft

Show me the last for .
Show Decoded

2018-08-16 09:35 METAR KSNC 161335Z AUTO 29005KT 9SM CLR 29/21 A3005 RMK AO2 =
2018-08-16 09:15 METAR KSNC 161315Z AUTO 00000KT 9SM CLR 28/22 A3005 RMK AO2 =
2018-08-16 08:55 METAR KSNC 161255Z AUTO 30004KT 9SM CLR 28/22 A3004 RMK AO2 =
2018-08-16 08:35 METAR KSNC 161235Z AUTO 31003KT 9SM CLR 27/22 A3004 RMK AO2 =
2018-08-16 08:15 METAR KSNC 161215Z AUTO 00000KT 9SM CLR 26/21 A3004 RMK AO2 =
2018-08-16 07:55 METAR KSNC 161155Z AUTO 00000KT 10SM CLR 26/21 A3004 RMK AO2 =
2018-08-16 07:35 METAR KSNC 161135Z AUTO 00000KT 9SM CLR 25/21 A3003 RMK AO2 =
2018-08-16 07:15 METAR KSNC 161115Z AUTO 00000KT 9SM CLR 24/21 A3002 RMK AO2 =
2018-08-16 06:55 METAR KSNC 161055Z AUTO 00000KT 8SM CLR 23/21 A3002 RMK AO2 =
2018-08-16 06:35 METAR KSNC 161035Z AUTO 00000KT 9SM CLR 22/20 A3001 RMK AO2 =
2018-08-16 06:15 METAR KSNC 161015Z AUTO 00000KT 9SM CLR 22/20 A3001 RMK AO2 =
2018-08-16 05:55 METAR KSNC 160955Z AUTO 00000KT 8SM 21/20 A3001 RMK AO2 =
2018-08-16 05:35 METAR KSNC 160935Z AUTO 00000KT 10SM CLR 23/20 A3000 RMK AO2 =
2018-08-16 05:15 METAR KSNC 160915Z AUTO 00000KT 10SM CLR 23/20 A3000 RMK AO2 =
2018-08-16 04:55 METAR KSNC 160855Z AUTO 00000KT 10SM CLR 23/20 A2999 RMK AO2 =
2018-08-16 04:35 METAR KSNC 160835Z AUTO 00000KT 10SM CLR 23/20 A2999 RMK AO2 =
2018-08-16 04:15 METAR KSNC 160815Z AUTO 00000KT 10SM CLR 23/20 A2999 RMK AO2 =
2018-08-16 03:55 METAR KSNC 160755Z AUTO 00000KT 10SM CLR 24/21 A2999 RMK AO2 =
2018-08-16 03:35 METAR KSNC 160735Z AUTO 00000KT 10SM CLR 24/21 A2998 RMK AO2 =
2018-08-16 03:15 METAR KSNC 160715Z AUTO 00000KT 10SM CLR 24/20 A2998 RMK AO2 =
2018-08-16 02:55 METAR KSNC 160655Z AUTO VRB03KT 10SM CLR 24/20 A2998 RMK AO2 =
2018-08-16 02:35 METAR KSNC 160635Z AUTO 29004KT 10SM CLR 25/21 A2997 RMK AO2 =
2018-08-16 02:15 METAR KSNC 160615Z AUTO 30005KT 10SM CLR 24/21 A2997 RMK AO2 =
2018-08-16 01:55 METAR KSNC 160555Z AUTO 30004KT 10SM CLR 23/21 A2997 RMK AO2 =
2018-08-16 01:35 METAR KSNC 160535Z AUTO 29003KT 10SM CLR 23/21 A2997 RMK AO2 =
2018-08-16 01:15 METAR KSNC 160515Z AUTO 00000KT 10SM CLR 24/21 A2997 RMK AO2 =
2018-08-16 00:55 METAR KSNC 160455Z AUTO VRB03KT 10SM CLR 24/21 A2997 RMK AO2 =
2018-08-16 00:35 METAR KSNC 160435Z AUTO 25005KT 10SM CLR 24/21 A2997 RMK AO2 =
2018-08-16 00:15 METAR KSNC 160415Z AUTO 26003KT 10SM CLR 24/21 A2996 RMK AO2
2018-08-15 23:55 METAR KSNC 160355Z AUTO 24003KT 10SM CLR 24/21 A2996 RMK AO2 =
2018-08-15 23:35 METAR KSNC 160335Z AUTO VRB04KT 10SM CLR 24/21 A2996 RMK AO2 =
2018-08-15 23:15 METAR KSNC 160315Z AUTO 26004KT 10SM CLR 24/21 A2996 RMK AO2 =
2018-08-15 22:55 METAR KSNC 160255Z AUTO 25004KT 10SM CLR 24/21 A2996 RMK AO2 =
2018-08-15 22:35 METAR KSNC 160235Z AUTO 24003KT 10SM 25/21 A2996 RMK AO2 =
2018-08-15 22:15 METAR KSNC 160215Z AUTO 24004KT 10SM CLR 24/21 A2997 RMK AO2 =
2018-08-15 21:55 METAR KSNC 160155Z AUTO 00000KT 10SM CLR 24/22 A2996 RMK AO2 =
2018-08-15 21:35 METAR KSNC 160135Z AUTO 26003KT 10SM CLR 24/22 A2996 RMK AO2 =
2018-08-15 21:15 METAR KSNC 160115Z AUTO 25003KT 10SM CLR 24/22 A2995 RMK AO2 =
2018-08-15 20:55 METAR KSNC 160055Z AUTO 00000KT 10SM CLR 24/22 A2995 RMK AO2 =
2018-08-15 20:35 METAR KSNC 160035Z AUTO 00000KT 10SM CLR 24/21 A2994 RMK AO2 =
2018-08-15 20:15 METAR KSNC 160015Z AUTO 00000KT 10SM CLR 25/22 A2994 RMK AO2 =
2018-08-15 19:55 METAR KSNC 152355Z AUTO VRB04KT 10SM CLR 25/21 A2993 RMK AO2 =
2018-08-15 19:35 METAR KSNC 152335Z AUTO 00000KT 10SM CLR 26/21 A2992 RMK AO2 =
2018-08-15 19:15 METAR KSNC 152315Z AUTO 00000KT 10SM CLR 27/21 A2991 RMK AO2 =
2018-08-15 18:55 METAR KSNC 152255Z AUTO 24003KT 10SM 27/21 A2990 RMK AO2 =
2018-08-15 18:35 METAR KSNC 152235Z AUTO 00000KT 10SM 29/21 A2990 RMK AO2 =
2018-08-15 18:15 METAR KSNC 152215Z AUTO 00000KT 10SM CLR 29/21 A2990 RMK AO2 =
2018-08-15 17:55 METAR KSNC 152155Z AUTO 00000KT 10SM CLR 30/21 A2990 RMK AO2 =
2018-08-15 17:35 METAR KSNC 152135Z AUTO 27005KT 10SM CLR 30/21 A2990 RMK AO2 =
2018-08-15 17:15 METAR KSNC 152115Z AUTO 29003KT 10SM CLR 31/21 A2989 RMK AO2 =
2018-08-15 16:55 METAR KSNC 152055Z AUTO 30005KT 10SM 31/20 A2989 RMK AO2 =
2018-08-15 16:35 METAR KSNC 152035Z AUTO 31005KT 10SM CLR 31/20 A2989 RMK AO2 =
2018-08-15 16:15 METAR KSNC 152015Z AUTO 28007G16KT 230V320 10SM CLR 31/19 A2989 RMK AO2 =
2018-08-15 15:55 METAR KSNC 151955Z AUTO 31005G13KT 10SM FEW041 SCT049 SCT110 31/20 A2989 RMK AO2
                 =
2018-08-15 15:35 METAR KSNC 151935Z AUTO 31006G12KT 10SM FEW040 SCT048 SCT110 31/20 A2989 RMK AO2
                 =
2018-08-15 15:15 METAR KSNC 151915Z AUTO VRB06KT 10SM 31/20 A2989 RMK AO2 =
2018-08-15 14:55 METAR KSNC 151855Z AUTO VRB04KT 10SM FEW039 FEW046 FEW120 30/20 A2989 RMK AO2 =
2018-08-15 14:35 METAR KSNC 151835Z AUTO 31004G12KT 10SM FEW039 FEW046 FEW090 31/20 A2989 RMK AO2
                 =
2018-08-15 14:15 METAR KSNC 151815Z AUTO 32009KT 10SM FEW038 31/20 A2989 RMK AO2 =
2018-08-15 13:55 METAR KSNC 151755Z AUTO 32007KT 10SM FEW038 30/20 A2989 RMK AO2 =
2018-08-15 13:35 METAR KSNC 151735Z AUTO VRB06G12KT 10SM CLR 30/19 A2990 RMK AO2 =
2018-08-15 13:15 METAR KSNC 151715Z AUTO 35009KT 10SM SCT031 SCT037 30/20 A2990 RMK AO2 =
2018-08-15 12:55 METAR KSNC 151655Z AUTO VRB04G10KT 10SM BKN032 29/20 A2989 RMK AO2 =
2018-08-15 12:35 METAR KSNC 151635Z AUTO 32010KT 10SM FEW029 FEW035 28/20 A2989 RMK AO2 =
2018-08-15 12:15 METAR KSNC 151615Z AUTO 31007G13KT 10SM SCT028 SCT041 SCT070 28/21 A2989 RMK AO2
                 =
2018-08-15 11:55 METAR KSNC 151555Z AUTO VRB07KT 10SM FEW028 FEW035 SCT040 29/20 A2989 RMK AO2 =
2018-08-15 11:35 METAR KSNC 151535Z AUTO 30006KT 10SM FEW025 SCT033 SCT039 27/20 A2989 RMK AO2 =
2018-08-15 11:15 METAR KSNC 151515Z AUTO 29008KT 260V320 9SM FEW024 FEW030 SCT040 28/20 A2989 RMK
                 AO2 =
2018-08-15 10:55 METAR KSNC 151455Z AUTO 29008KT 260V320 10SM SCT025 SCT031 BKN039 27/20 A2989
                 RMK AO2 =
2018-08-15 10:35 METAR KSNC 151435Z AUTO VRB05G11KT 10SM FEW024 FEW029 FEW110 28/20 A2988 RMK AO2
                 =
2018-08-15 10:15 METAR KSNC 151415Z AUTO VRB06KT 10SM CLR 27/20 A2988 RMK AO2 =

Support USWX by starting your Amazon purchase here.